createdAt,value
2023-03-03T00:00:51.555Z,79.11
2023-03-03T00:05:54.403Z,79.30
2023-03-03T00:10:56.633Z,79.20
2023-03-03T00:16:18.622Z,80.19
2023-03-03T00:21:29.893Z,79.72
2023-03-03T00:26:36.845Z,79.71
2023-03-03T00:31:39.035Z,79.29
2023-03-03T00:36:41.532Z,79.65
2023-03-03T00:41:43.848Z,79.89
2023-03-03T00:46:46.050Z,79.84
2023-03-03T00:51:48.192Z,80.01
2023-03-03T00:56:50.374Z,80.23
2023-03-03T01:01:54.526Z,80.31
2023-03-03T01:06:56.777Z,80.01
2023-03-03T01:11:59.035Z,80.83
2023-03-03T01:17:01.235Z,80.65
2023-03-03T01:22:03.503Z,80.97
2023-03-03T01:27:05.743Z,80.83
2023-03-03T01:32:07.985Z,80.96
2023-03-03T01:37:10.141Z,81.24
2023-03-03T01:42:12.371Z,81.27
2023-03-03T01:47:30.793Z,81.96
2023-03-03T01:52:34.181Z,81.52
2023-03-03T01:57:41.312Z,81.50
2023-03-03T02:02:45.063Z,81.65
2023-03-03T02:07:47.407Z,81.58
2023-03-03T02:12:52.687Z,81.86
2023-03-03T02:17:59.226Z,81.63
2023-03-03T02:23:09.548Z,81.90
2023-03-03T02:28:11.849Z,81.80
2023-03-03T02:33:14.119Z,81.71
2023-03-03T02:38:28.552Z,82.37
2023-03-03T02:43:37.014Z,81.99
2023-03-03T02:48:39.204Z,82.05
2023-03-03T02:53:41.816Z,82.06
2023-03-03T02:58:44.257Z,82.19
2023-03-03T03:03:46.824Z,82.28
2023-03-03T03:08:52.484Z,82.55
2023-03-03T03:13:54.799Z,82.38
2023-03-03T03:18:57.036Z,82.46
2023-03-03T03:23:59.611Z,82.63
2023-03-03T03:29:02.491Z,82.44
2023-03-03T03:34:04.999Z,82.77
2023-03-03T03:39:07.393Z,82.83
2023-03-03T03:44:12.712Z,82.73
2023-03-03T03:49:15.232Z,83.05
2023-03-03T03:54:17.973Z,82.76
2023-03-03T03:59:21.102Z,83.05
2023-03-03T04:04:23.903Z,82.98
2023-03-03T04:09:26.394Z,83.10
2023-03-03T04:14:28.807Z,83.14
2023-03-03T04:19:31.324Z,82.91
2023-03-03T04:24:33.682Z,82.96
2023-03-03T04:29:36.356Z,83.05
2023-03-03T04:34:38.697Z,82.94
2023-03-03T04:39:41.585Z,83.26
2023-03-03T04:44:43.985Z,83.43
2023-03-03T04:49:47.109Z,83.26
2023-03-03T04:55:17.008Z,83.35
2023-03-03T05:00:22.106Z,83.50
2023-03-03T05:05:24.522Z,83.17
2023-03-03T05:10:26.833Z,83.09
2023-03-03T05:15:29.057Z,83.51
2023-03-03T05:20:31.199Z,83.26
2023-03-03T05:25:33.406Z,83.45
2023-03-03T05:30:36.458Z,83.35
2023-03-03T05:35:38.733Z,83.24
2023-03-03T05:40:40.967Z,83.04
2023-03-03T05:45:43.280Z,83.32
2023-03-03T05:50:45.427Z,83.15
2023-03-03T05:55:47.806Z,83.18
2023-03-03T06:00:50.059Z,83.20
2023-03-03T06:05:54.536Z,83.28
2023-03-03T06:10:56.766Z,83.10
2023-03-03T06:15:59.350Z,83.35
2023-03-03T06:21:01.532Z,83.30
2023-03-03T06:26:03.875Z,83.51
2023-03-03T06:31:06.130Z,83.09
2023-03-03T06:36:08.556Z,83.10
2023-03-03T06:41:10.989Z,83.04
2023-03-03T06:46:13.272Z,82.29
2023-03-03T06:51:35.449Z,83.06
2023-03-03T06:56:38.149Z,82.45
2023-03-03T07:01:41.181Z,82.68
2023-03-03T07:06:43.446Z,82.33
2023-03-03T07:11:46.716Z,82.10
2023-03-03T07:16:55.169Z,82.33
2023-03-03T07:21:58.510Z,82.11
2023-03-03T07:27:01.404Z,82.09
2023-03-03T07:32:12.345Z,82.16
2023-03-03T07:37:18.909Z,81.96
2023-03-03T07:42:22.867Z,81.89
2023-03-03T07:47:37.810Z,81.87
2023-03-03T07:52:52.017Z,81.98
2023-03-03T07:57:59.113Z,81.52
2023-03-03T08:03:05.326Z,81.84
2023-03-03T08:08:10.662Z,81.73
2023-03-03T08:13:21.943Z,81.39
2023-03-03T08:18:36.449Z,81.49
2023-03-03T08:23:38.631Z,81.04
2023-03-03T08:28:41.226Z,81.04
2023-03-03T08:33:43.755Z,80.87
2023-03-03T08:38:46.033Z,81.03
2023-03-03T08:43:48.601Z,81.10
2023-03-03T08:48:51.681Z,80.68
2023-03-03T08:53:54.016Z,81.14
2023-03-03T08:59:02.457Z,80.91
2023-03-03T09:04:05.427Z,81.18
2023-03-03T09:09:07.876Z,80.92
2023-03-03T09:14:15.764Z,80.97
2023-03-03T09:19:30.947Z,81.19
2023-03-03T09:24:37.465Z,80.98
2023-03-03T09:29:43.463Z,80.91
2023-03-03T09:34:46.906Z,81.01
2023-03-03T09:39:51.648Z,81.12
2023-03-03T09:45:22.019Z,80.76
2023-03-03T09:50:26.049Z,80.55
2023-03-03T09:55:51.661Z,80.54
2023-03-03T10:01:27.638Z,80.57
2023-03-03T10:06:54.270Z,80.53
2023-03-03T10:12:08.825Z,80.56
2023-03-03T10:17:31.292Z,80.25
2023-03-03T10:23:03.122Z,80.05
2023-03-03T10:28:32.404Z,79.85
2023-03-03T10:34:25.366Z,79.41
2023-03-03T10:39:46.164Z,79.46
2023-03-03T10:44:54.514Z,79.14
2023-03-03T10:50:07.981Z,79.30
2023-03-03T10:55:36.409Z,79.28
2023-03-03T11:01:24.756Z,78.83
2023-03-03T11:06:31.306Z,78.88
2023-03-03T11:11:47.037Z,78.79
2023-03-03T11:17:05.314Z,78.79
2023-03-03T11:22:29.677Z,79.02
2023-03-03T11:27:57.613Z,78.83
2023-03-03T11:33:22.733Z,78.69
2023-03-03T11:38:48.885Z,78.51
2023-03-03T11:44:05.611Z,78.03
2023-03-03T11:49:35.540Z,77.89
2023-03-03T11:54:55.210Z,78.26
2023-03-03T12:00:15.546Z,78.24
2023-03-03T12:05:55.477Z,78.21
2023-03-03T12:11:31.610Z,78.21
2023-03-03T12:16:59.180Z,77.81
2023-03-03T12:22:23.439Z,77.62
2023-03-03T12:27:35.224Z,77.50
2023-03-03T12:32:46.395Z,77.38
2023-03-03T12:37:55.495Z,77.23
2023-03-03T12:43:08.435Z,77.08
2023-03-03T12:48:18.072Z,77.16
2023-03-03T12:53:29.459Z,77.00
2023-03-03T12:58:51.044Z,76.80
2023-03-03T13:04:17.163Z,76.84
2023-03-03T13:09:33.929Z,76.94
2023-03-03T13:14:51.246Z,76.74
2023-03-03T13:19:58.356Z,76.79
2023-03-03T13:25:09.729Z,76.93
2023-03-03T13:30:18.142Z,76.49
2023-03-03T13:35:46.207Z,76.13
2023-03-03T13:40:58.304Z,76.27
2023-03-03T13:46:07.270Z,75.93
2023-03-03T13:51:23.070Z,76.01
2023-03-03T13:56:28.841Z,75.94
2023-03-03T14:01:40.153Z,75.43
2023-03-03T14:06:48.932Z,75.33
2023-03-03T14:11:56.463Z,75.29
2023-03-03T14:17:07.662Z,74.95
2023-03-03T14:22:37.229Z,74.75
2023-03-03T14:27:48.633Z,74.96
2023-03-03T14:33:09.619Z,74.91
2023-03-03T14:38:32.056Z,75.14
2023-03-03T14:43:37.196Z,75.26
2023-03-03T14:48:51.702Z,74.96
2023-03-03T14:53:54.198Z,75.10
2023-03-03T14:59:24.955Z,74.59
2023-03-03T15:04:28.474Z,74.85
2023-03-03T15:09:51.383Z,74.56
2023-03-03T15:15:06.207Z,74.69
2023-03-03T15:20:33.663Z,74.68
2023-03-03T15:26:00.210Z,74.79
2023-03-03T15:31:27.277Z,74.67
2023-03-03T15:36:51.205Z,74.79
2023-03-03T15:42:06.849Z,75.23
2023-03-03T15:47:28.956Z,75.17
2023-03-03T15:53:06.095Z,75.12
2023-03-03T15:58:20.468Z,75.32
2023-03-03T16:03:37.386Z,74.92
2023-03-03T16:08:47.767Z,75.29
2023-03-03T16:13:59.587Z,75.00
2023-03-03T16:19:04.414Z,74.99
2023-03-03T16:24:41.988Z,74.50
2023-03-03T16:30:05.465Z,74.86
2023-03-03T16:35:26.435Z,74.81
2023-03-03T16:40:54.759Z,74.55
2023-03-03T16:46:12.105Z,74.46
2023-03-03T16:51:40.150Z,74.87
2023-03-03T16:56:43.973Z,74.65
2023-03-03T17:02:23.872Z,74.80
2023-03-03T17:07:50.771Z,74.92
2023-03-03T17:13:16.100Z,74.95
2023-03-03T17:18:45.362Z,74.87
2023-03-03T17:24:12.753Z,74.91
2023-03-03T17:29:50.483Z,74.93
2023-03-03T17:35:16.216Z,74.92
2023-03-03T17:40:25.733Z,74.98
2023-03-03T17:45:29.933Z,74.77
2023-03-03T17:50:47.395Z,75.27
2023-03-03T17:56:15.464Z,75.11
2023-03-03T18:01:38.504Z,74.82
2023-03-03T18:06:59.889Z,74.93
2023-03-03T18:12:39.812Z,74.96
2023-03-03T18:18:17.832Z,74.79
2023-03-03T18:23:44.045Z,74.61
2023-03-03T18:28:49.552Z,74.71
2023-03-03T18:34:08.874Z,74.37
2023-03-03T18:39:14.649Z,74.56
2023-03-03T18:44:48.094Z,74.13
2023-03-03T18:49:52.901Z,74.51
2023-03-03T18:55:03.082Z,74.46
2023-03-03T19:00:25.365Z,74.32
2023-03-03T19:05:48.245Z,74.08
2023-03-03T19:10:54.904Z,74.30
2023-03-03T19:16:02.231Z,74.29
2023-03-03T19:21:31.819Z,73.52
2023-03-03T19:26:54.262Z,73.80
2023-03-03T19:32:17.816Z,74.10
2023-03-03T19:37:41.634Z,73.99
2023-03-03T19:42:56.751Z,73.78
2023-03-03T19:48:28.228Z,73.70
2023-03-03T19:54:10.520Z,74.17
2023-03-03T19:59:31.884Z,73.98
2023-03-03T20:04:38.533Z,74.12
2023-03-03T20:10:01.432Z,74.02
2023-03-03T20:15:19.181Z,74.16
2023-03-03T20:20:39.386Z,74.09
2023-03-03T20:25:56.978Z,74.27
2023-03-03T20:31:22.449Z,73.79
2023-03-03T20:36:48.328Z,74.31
2023-03-03T20:41:58.968Z,74.30
2023-03-03T20:47:04.232Z,74.75
2023-03-03T20:52:15.142Z,74.68
2023-03-03T20:57:25.292Z,74.75
2023-03-03T21:02:52.899Z,74.78
2023-03-03T21:07:57.924Z,74.62
2023-03-03T21:13:25.772Z,74.75
2023-03-03T21:18:28.183Z,74.50
2023-03-03T21:23:36.653Z,74.74
2023-03-03T21:28:38.936Z,74.54
2023-03-03T21:33:49.256Z,74.71
2023-03-03T21:38:53.871Z,74.48
2023-03-03T21:43:56.082Z,74.44
2023-03-03T21:48:58.250Z,74.52
2023-03-03T21:54:00.475Z,74.32
2023-03-03T21:59:02.670Z,74.50
2023-03-03T22:04:05.051Z,74.61
2023-03-03T22:09:07.927Z,74.75
2023-03-03T22:14:10.413Z,74.61
2023-03-03T22:19:12.696Z,74.07
2023-03-03T22:24:14.966Z,74.83
2023-03-03T22:29:23.210Z,74.34
2023-03-03T22:34:25.486Z,74.65
2023-03-03T22:39:27.742Z,74.68
2023-03-03T22:44:29.965Z,74.63
2023-03-03T22:49:32.165Z,74.93
2023-03-03T22:54:34.303Z,74.85
2023-03-03T22:59:36.547Z,75.08
2023-03-03T23:04:38.802Z,74.68
2023-03-03T23:09:41.029Z,75.11
2023-03-03T23:14:43.280Z,75.31
2023-03-03T23:19:49.288Z,75.38
2023-03-03T23:24:54.554Z,75.41
2023-03-03T23:30:04.297Z,75.61
2023-03-03T23:35:07.556Z,75.64
2023-03-03T23:40:10.537Z,75.80
2023-03-03T23:45:13.710Z,75.75
2023-03-03T23:50:16.000Z,75.97
2023-03-03T23:55:18.231Z,75.98
